Time;durP1;ratioP1;P1;durP2;ratioP2;P2;SDS_P1;SDS_P2;PMS_P1;PMS_P2;Temp;Humidity;BMP_temperature;BMP_pressure;BME280_temperature;BME280_humidity;BME280_pressure;Samples;Min_cycle;Max_cycle;Signal;HPM_P1;HPM_P2
2021/11/03 00:01:18;;;;;;;32.38;5.80;;;;;;;12.03;95.77;98062.22;5169262;27;20038;-94
2021/11/03 00:03:51;;;;;;;15.15;4.40;;;;;;;11.98;95.48;98066.91;5151245;27;20063;-96
2021/11/03 00:06:21;;;;;;;21.73;4.68;;;;;;;11.94;95.68;98066.16;5152577;27;20051;-94
2021/11/03 00:08:48;;;;;;;;;;;;;;;12.03;96.15;98091.53;5146921;27;20042;-94
2021/11/03 00:11:16;;;;;;;19.13;5.25;;;;;;;11.86;96.47;98057.59;5147430;27;19916;-95
2021/11/03 00:13:43;;;;;;;18.50;5.20;;;;;;;12.04;96.00;98088.81;5148575;27;20039;-94
2021/11/03 00:16:10;;;;;;;24.17;5.72;;;;;;;11.79;96.24;98056.13;5150563;27;20311;-95
2021/11/03 00:18:36;;;;;;;18.08;4.38;;;;;;;11.88;96.61;98082.41;5149966;27;20066;-94
2021/11/03 00:21:04;;;;;;;14.20;5.30;;;;;;;11.67;96.63;98058.41;5151219;27;20027;-95
2021/11/03 00:23:32;;;;;;;25.42;5.28;;;;;;;11.58;97.35;98058.81;5151190;27;20023;-94
2021/11/03 00:25:59;;;;;;;20.83;5.70;;;;;;;11.81;97.66;98096.91;5151568;27;20051;-95
2021/11/03 00:28:28;;;;;;;17.20;6.25;;;;;;;11.68;97.61;98078.78;5151421;27;20039;-95
2021/11/03 00:30:56;;;;;;;;;;;;;;;11.78;97.18;98099.72;5148163;27;20043;-95
2021/11/03 00:33:26;;;;;;;20.08;5.25;;;;;;;11.54;97.92;98065.19;5149115;27;19958;-95
2021/11/03 00:35:53;;;;;;;16.65;5.30;;;;;;;11.65;97.59;98052.28;5151301;27;20036;-95
2021/11/03 00:38:20;;;;;;;21.10;5.40;;;;;;;11.72;97.86;98056.41;5149300;27;20504;-94
2021/11/03 00:40:50;;;;;;;19.40;5.15;;;;;;;11.66;97.56;98048.66;5150409;28;20075;-94
2021/11/03 00:43:20;;;;;;;19.83;4.97;;;;;;;11.71;97.58;98073.31;5148795;28;20074;-94
2021/11/03 00:45:49;;;;;;;19.35;5.10;;;;;;;11.61;97.59;98047.16;5147092;28;20099;-95
2021/11/03 00:48:16;;;;;;;14.20;4.60;;;;;;;11.64;97.42;98065.66;5145843;27;20077;-93
2021/11/03 00:50:44;;;;;;;17.30;5.10;;;;;;;11.60;97.62;98061.38;5147102;28;20508;-95
2021/11/03 00:53:13;;;;;;;20.10;5.50;;;;;;;11.59;97.77;98057.88;5147182;28;20050;-95
2021/11/03 00:55:40;;;;;;;16.55;5.35;;;;;;;11.62;97.47;98070.19;5148004;28;20047;-95
2021/11/03 00:58:06;;;;;;;19.75;5.50;;;;;;;11.90;96.94;98096.53;5148691;28;20044;-95
2021/11/03 01:00:34;;;;;;;18.48;5.13;;;;;;;11.76;96.54;98066.94;5148377;28;20032;-96
2021/11/03 01:03:05;;;;;;;18.48;4.97;;;;;;;11.70;96.52;98063.59;5148409;28;20086;-95
2021/11/03 01:05:31;;;;;;;15.32;4.53;;;;;;;11.71;96.45;98069.81;5150526;28;20039;-96
2021/11/03 01:07:58;;;;;;;13.45;4.25;;;;;;;11.61;97.20;98060.47;5150221;28;20408;-96
2021/11/03 01:10:33;;;;;;;15.45;4.40;;;;;;;11.61;96.83;98064.00;5150083;27;20055;-95
2021/11/03 01:13:00;;;;;;;14.32;5.38;;;;;;;11.77;97.42;98092.63;5149063;28;20068;-95
2021/11/03 01:15:28;;;;;;;16.23;4.80;;;;;;;11.56;97.72;98071.31;5150657;28;20096;-95
2021/11/03 01:17:56;;;;;;;18.38;4.70;;;;;;;11.57;97.58;98075.69;5149895;28;20431;-96
2021/11/03 01:20:25;;;;;;;13.35;4.43;;;;;;;11.51;97.67;98054.66;5150381;28;20519;-95
2021/11/03 01:22:52;;;;;;;11.55;4.20;;;;;;;11.55;97.60;98064.25;5149482;28;20039;-95
2021/11/03 01:25:21;;;;;;;16.88;4.93;;;;;;;11.57;97.57;98058.88;5151313;27;20039;-96
2021/11/03 01:27:48;;;;;;;14.95;4.32;;;;;;;11.48;98.29;98063.63;5152675;27;20043;-95
2021/11/03 01:30:17;;;;;;;19.00;4.93;;;;;;;11.54;97.71;98067.84;5152259;27;20044;-95
2021/11/03 01:32:43;;;;;;;16.55;4.70;;;;;;;11.58;97.54;98064.13;5153269;27;20043;-93
2021/11/03 01:35:09;;;;;;;14.10;4.55;;;;;;;11.68;96.66;98069.91;5151504;27;20047;-94
2021/11/03 01:37:37;;;;;;;14.55;4.20;;;;;;;11.70;95.88;98066.25;5151255;27;20070;-95
2021/11/03 01:40:05;;;;;;;24.35;6.05;;;;;;;11.81;96.00;98063.13;5150077;27;20065;-96
2021/11/03 01:42:32;;;;;;;28.83;5.20;;;;;;;11.80;95.47;98052.56;5151472;27;20035;-94
2021/11/03 01:44:58;;;;;;;23.00;4.70;;;;;;;11.74;95.41;98037.69;5150971;27;20051;-95
2021/11/03 01:47:43;;;;;;;10.80;4.25;;;;;;;11.69;95.79;98043.22;5151838;27;20043;-95
2021/11/03 01:50:19;;;;;;;17.83;4.18;;;;;;;11.76;95.90;98051.81;5150401;27;20032;-95
2021/11/03 01:52:52;;;;;;;15.13;4.22;;;;;;;11.63;96.25;98043.50;5151951;27;20039;-95
2021/11/03 01:55:19;;;;;;;16.08;4.65;;;;;;;11.65;95.88;98038.97;5151617;27;20059;-95
2021/11/03 01:57:50;;;;;;;18.45;4.85;;;;;;;11.61;95.77;98041.81;5151722;27;20050;-95
2021/11/03 02:00:20;;;;;;;14.15;3.95;;;;;;;11.54;95.72;98035.00;5151064;27;20412;-94
2021/11/03 02:02:47;;;;;;;19.02;4.53;;;;;;;11.65;96.39;98044.28;5150422;27;20039;-95
2021/11/03 02:05:19;;;;;;;7.72;3.88;;;;;;;11.90;95.30;98062.75;5150544;27;20508;-94
2021/11/03 02:07:49;;;;;;;23.80;5.47;;;;;;;11.81;94.71;98027.63;5149474;27;20514;-93
2021/11/03 02:10:15;;;;;;;15.70;3.90;;;;;;;11.81;94.24;98019.66;5151654;27;20035;-95
2021/11/03 02:12:42;;;;;;;15.25;5.13;;;;;;;11.76;94.47;98013.66;5151404;27;20035;-95
2021/11/03 02:15:10;;;;;;;19.77;4.35;;;;;;;11.69;94.54;98011.28;5152370;27;20043;-95
2021/11/03 02:17:36;;;;;;;10.52;4.50;;;;;;;11.62;94.31;98015.09;5150494;27;20039;-95
2021/11/03 02:20:12;;;;;;;16.95;4.35;;;;;;;11.66;95.12;98032.69;5151807;27;20035;-94
2021/11/03 02:22:46;;;;;;;16.50;4.05;;;;;;;11.55;94.76;98021.63;5152103;27;20050;-95
2021/11/03 02:25:17;;;;;;;15.85;4.80;;;;;;;11.44;95.77;98013.25;5149416;27;20100;-95
2021/11/03 02:27:47;;;;;;;15.02;3.47;;;;;;;11.44;96.15;98023.91;5150787;27;20047;-95
2021/11/03 02:30:16;;;;;;;12.02;4.10;;;;;;;11.45;97.31;98014.97;5149833;27;20046;-95
2021/11/03 02:32:43;;;;;;;7.72;3.38;;;;;;;11.48;97.31;98015.72;5149215;27;20042;-95
2021/11/03 02:35:11;;;;;;;15.90;3.88;;;;;;;11.41;96.91;97994.75;5156519;27;20067;-96
2021/11/03 02:37:48;;;;;;;18.65;4.20;;;;;;;11.45;96.47;97986.56;5157977;27;20043;-96
2021/11/03 02:40:40;;;;;;;13.02;3.88;;;;;;;11.56;96.29;97988.78;5156723;27;20042;-96
2021/11/03 02:43:20;;;;;;;16.42;4.00;;;;;;;11.50;95.81;97965.94;5157938;27;20077;-95
2021/11/03 02:45:52;;;;;;;14.63;4.25;;;;;;;11.49;96.03;97952.69;5156237;27;20075;-95
2021/11/03 02:48:20;;;;;;;15.25;3.75;;;;;;;11.43;95.58;97934.34;5157231;27;20047;-96
2021/11/03 02:51:11;;;;;;;12.18;3.38;;;;;;;11.61;96.56;97986.75;5157184;27;20035;-96
2021/11/03 02:53:47;;;;;;;12.95;3.80;;;;;;;11.38;96.90;97953.16;5157377;27;20040;-95
2021/11/03 03:04:13;;;;;;;12.05;3.70;;;;;;;11.33;97.26;97938.31;5075783;28;20036;-95
2021/11/03 03:20:02;;;;;;;10.30;3.58;;;;;;;11.63;94.98;97933.44;5042127;28;20053;-94
2021/11/03 03:22:31;;;;;;;14.00;3.03;;;;;;;11.64;94.70;97922.69;5043603;28;20053;-95
2021/11/03 03:24:57;;;;;;;12.20;3.92;;;;;;;11.79;94.91;97945.13;5044270;28;20390;-94
2021/11/03 03:27:24;;;;;;;10.60;3.25;;;;;;;11.66;95.48;97915.50;5046966;28;20056;-95
2021/11/03 03:29:50;;;;;;;13.88;3.75;;;;;;;11.66;95.59;97926.16;5049936;28;20049;-95
2021/11/03 03:32:16;;;;;;;13.90;3.78;;;;;;;11.69;94.68;97926.03;5049613;28;20045;-94
2021/11/03 03:34:43;;;;;;;11.88;3.67;;;;;;;11.70;94.41;97927.75;5049000;28;20049;-94
2021/11/03 03:37:13;;;;;;;18.00;3.88;;;;;;;11.82;95.01;97946.78;5049166;28;20046;-96
2021/11/03 03:39:40;;;;;;;12.52;3.58;;;;;;;11.64;95.47;97932.50;5049153;28;20111;-95
2021/11/03 03:42:10;;;;;;;14.25;3.58;;;;;;;11.60;95.20;97936.22;5047598;28;20057;-96
2021/11/03 03:44:38;;;;;;;12.65;3.95;;;;;;;11.47;95.35;97912.84;5046667;28;20105;-96
2021/11/03 03:47:05;;;;;;;12.60;3.88;;;;;;;11.43;96.04;97911.22;5047221;28;20064;-95
2021/11/03 03:49:33;;;;;;;9.88;3.55;;;;;;;11.45;95.48;97908.47;5045560;28;20086;-95
2021/11/03 03:52:00;;;;;;;14.50;3.60;;;;;;;11.51;95.03;97908.22;5045540;28;20072;-95
2021/11/03 03:54:28;;;;;;;14.80;4.40;;;;;;;11.74;94.44;97917.84;5042661;28;20046;-95
2021/11/03 03:56:55;;;;;;;15.35;3.70;;;;;;;11.56;94.17;97886.69;5041040;28;20064;-95
2021/11/03 03:59:21;;;;;;;13.05;3.80;;;;;;;11.55;94.48;97882.31;5045537;28;20068;-95
2021/11/03 04:01:48;;;;;;;11.32;3.50;;;;;;;11.57;94.88;97881.31;5040570;28;20120;-94
2021/11/03 04:04:14;;;;;;;11.75;3.40;;;;;;;11.55;95.12;97891.16;5042933;28;20045;-95
2021/11/03 04:06:41;;;;;;;18.40;3.85;;;;;;;11.51;95.25;97895.78;5044547;28;20049;-96
2021/11/03 04:09:08;;;;;;;11.85;3.40;;;;;;;11.44;94.86;97894.31;5046210;28;20041;-95
2021/11/03 04:11:36;;;;;;;11.27;3.40;;;;;;;11.50;94.73;97891.38;5045028;28;20042;-95
2021/11/03 04:14:03;;;;;;;9.98;3.85;;;;;;;11.40;94.12;97863.44;5045106;28;20073;-96
2021/11/03 04:16:32;;;;;;;14.25;3.50;;;;;;;11.44;94.12;97869.50;5043564;28;20145;-94
2021/11/03 04:19:00;;;;;;;12.57;3.58;;;;;;;11.44;94.39;97878.34;5041725;28;20050;-95
2021/11/03 04:21:26;;;;;;;16.30;3.47;;;;;;;11.30;94.96;97857.69;5039844;28;20045;-95
2021/11/03 04:23:53;;;;;;;12.05;3.45;;;;;;;11.16;95.44;97854.75;5040083;28;20056;-96
2021/11/03 04:26:22;;;;;;;11.27;3.13;;;;;;;11.14;95.68;97867.25;5040592;28;20403;-94
2021/11/03 04:28:50;;;;;;;16.13;3.45;;;;;;;11.02;96.39;97867.81;5039282;28;20049;-94
2021/11/03 04:31:16;;;;;;;10.65;3.10;;;;;;;10.93;96.12;97866.41;5039765;28;20081;-94
2021/11/03 04:33:42;;;;;;;10.80;3.50;;;;;;;10.96;97.29;97868.06;5042217;28;20381;-95
2021/11/03 04:36:09;;;;;;;10.95;3.53;;;;;;;10.87;97.28;97848.91;5042468;28;20041;-94
2021/11/03 04:38:35;;;;;;;13.88;3.20;;;;;;;10.88;97.29;97852.44;5042005;28;20105;-94
2021/11/03 04:41:01;;;;;;;11.73;3.58;;;;;;;10.90;97.29;97859.41;5042175;28;20046;-95
2021/11/03 04:43:27;;;;;;;14.85;3.95;;;;;;;10.91;97.40;97857.63;5043470;28;20053;-95
2021/11/03 04:45:56;;;;;;;10.95;4.18;;;;;;;10.89;97.47;97841.72;5045693;28;20109;-95
2021/11/03 04:48:22;;;;;;;14.63;3.05;;;;;;;11.01;97.82;97844.78;5046465;28;20085;-95
2021/11/03 04:50:49;;;;;;;13.38;3.00;;;;;;;10.97;98.16;97848.50;5046722;28;20048;-95
2021/11/03 04:53:15;;;;;;;10.85;3.15;;;;;;;11.01;98.25;97837.66;5043830;28;20038;-96
2021/11/03 04:55:45;;;;;;;7.80;2.80;;;;;;;11.07;98.07;97837.41;5044586;28;20091;-95
2021/11/03 04:58:12;;;;;;;8.43;2.97;;;;;;;11.07;97.50;97809.94;5046208;28;20063;-94
2021/11/03 05:00:39;;;;;;;9.32;2.88;;;;;;;11.06;97.34;97809.06;5049060;28;20045;-95
2021/11/03 05:03:10;;;;;;;16.27;3.53;;;;;;;11.10;98.01;97820.44;5052258;28;20049;-95
2021/11/03 05:05:43;;;;;;;11.30;2.88;;;;;;;11.08;97.74;97814.31;5052374;28;20469;-95
2021/11/03 05:08:12;;;;;;;14.10;3.15;;;;;;;11.09;97.19;97811.59;5048486;28;20076;-96
2021/11/03 05:10:39;;;;;;;9.52;2.90;;;;;;;11.10;97.11;97808.00;5048726;28;20065;-95
2021/11/03 05:13:05;;;;;;;12.13;4.75;;;;;;;11.11;97.06;97811.53;5047057;28;20088;-95
2021/11/03 05:15:32;;;;;;;21.40;3.60;;;;;;;11.15;96.89;97815.78;5045878;28;20041;-95
2021/11/03 05:17:58;;;;;;;8.30;2.53;;;;;;;11.19;96.86;97809.41;5046635;28;20053;-95
2021/11/03 05:20:28;;;;;;;14.40;3.38;;;;;;;11.43;96.27;97842.03;5046438;28;20041;-95
2021/11/03 05:23:02;;;;;;;12.02;3.13;;;;;;;11.25;96.02;97805.56;5047351;28;20041;-96
2021/11/03 05:25:29;;;;;;;9.25;3.10;;;;;;;11.39;96.54;97829.78;5049853;28;20068;-94
2021/11/03 05:27:57;;;;;;;9.80;2.80;;;;;;;11.34;96.34;97810.47;5047492;28;20069;-94
2021/11/03 05:30:25;;;;;;;10.15;2.95;;;;;;;11.28;96.74;97810.78;5046268;28;20045;-94
2021/11/03 05:32:53;;;;;;;9.30;2.50;;;;;;;11.25;96.63;97798.44;5044575;28;20065;-94
2021/11/03 05:35:20;;;;;;;8.80;3.05;;;;;;;11.30;95.62;97799.13;5045695;28;20053;-94
2021/11/03 05:37:48;;;;;;;9.85;2.58;;;;;;;11.37;95.84;97802.38;5042457;28;20134;-95
2021/11/03 05:40:18;;;;;;;9.97;3.00;;;;;;;11.34;96.36;97801.63;5045179;28;20064;-96
2021/11/03 05:42:44;;;;;;;10.15;3.15;;;;;;;11.42;95.87;97804.81;5043774;28;20053;-95
2021/11/03 05:45:11;;;;;;;12.13;2.70;;;;;;;11.40;95.88;97798.69;5042932;28;20398;-96
2021/11/03 05:47:37;;;;;;;12.45;3.42;;;;;;;11.40;95.62;97804.03;5045782;28;20049;-95
2021/11/03 05:50:06;;;;;;;7.05;2.70;;;;;;;11.47;95.65;97809.00;5048008;28;20049;-96
2021/11/03 05:52:33;;;;;;;10.50;2.67;;;;;;;11.48;95.70;97802.72;5044769;28;20103;-95
2021/11/03 05:55:01;;;;;;;11.50;3.42;;;;;;;11.54;95.74;97800.69;5048578;28;20045;-95
2021/11/03 05:57:30;;;;;;;5.13;2.47;;;;;;;11.56;96.41;97805.06;5049906;28;20132;-96
2021/11/03 06:00:01;;;;;;;8.05;2.30;;;;;;;11.59;94.75;97804.91;5053695;28;20064;-96
2021/11/03 06:02:29;;;;;;;8.85;2.80;;;;;;;11.82;95.15;97837.56;5053520;28;20057;-95
2021/11/03 06:04:55;;;;;;;5.82;2.28;;;;;;;11.72;94.53;97811.38;5051216;28;20042;-96
2021/11/03 06:07:21;;;;;;;12.50;2.75;;;;;;;11.78;94.32;97820.03;5050686;28;20049;-95
2021/11/03 06:09:47;;;;;;;7.68;2.75;;;;;;;11.70;94.28;97802.59;5044594;28;20046;-94
2021/11/03 06:12:19;;;;;;;11.35;2.60;;;;;;;11.70;93.46;97799.91;5047934;28;20057;-95
2021/11/03 06:14:46;;;;;;;10.55;2.60;;;;;;;11.79;93.21;97806.63;5052663;28;20075;-96
2021/11/03 06:17:12;;;;;;;7.03;2.25;;;;;;;11.82;92.83;97801.16;5054304;28;20029;-95
2021/11/03 06:19:39;;;;;;;10.35;2.75;;;;;;;11.84;92.72;97804.63;5053820;28;20049;-96
2021/11/03 06:22:07;;;;;;;11.63;2.83;;;;;;;11.95;92.74;97814.78;5053439;28;20045;-96
2021/11/03 06:24:35;;;;;;;9.52;2.88;;;;;;;11.97;92.71;97810.25;5049492;28;20466;-95
2021/11/03 06:27:02;;;;;;;6.97;2.80;;;;;;;11.90;92.48;97777.69;5102667;22;20056;-96
2021/11/03 06:29:32;;;;;;;10.88;3.28;;;;;;;12.13;92.34;97816.56;5068456;28;20067;-95
2021/11/03 06:31:58;;;;;;;9.98;2.40;;;;;;;11.91;90.11;97782.09;5070978;28;20073;-95
2021/11/03 06:34:28;;;;;;;10.40;2.65;;;;;;;11.96;90.38;97792.53;5064578;28;20053;-95
2021/11/03 06:36:55;;;;;;;11.30;2.55;;;;;;;12.00;90.47;97798.59;5064186;28;20052;-95
2021/11/03 06:39:22;;;;;;;12.15;4.85;;;;;;;12.17;91.14;97811.94;5061257;28;20037;-95
2021/11/03 06:41:49;;;;;;;13.07;5.45;;;;;;;12.17;91.65;97811.94;5060403;28;20056;-95
2021/11/03 06:44:19;;;;;;;9.25;3.00;;;;;;;12.04;91.44;97798.34;5060959;28;20064;-94
2021/11/03 06:46:51;;;;;;;11.25;2.70;;;;;;;12.01;90.13;97795.81;5075087;28;20490;-94
2021/11/03 06:49:17;;;;;;;12.60;2.85;;;;;;;12.08;90.42;97807.94;5080139;28;20040;-96
2021/11/03 06:51:44;;;;;;;9.57;2.80;;;;;;;12.10;89.52;97808.72;5080556;28;20040;-94
2021/11/03 06:54:10;;;;;;;6.88;2.50;;;;;;;12.13;88.51;97805.88;5081036;28;20035;-95
2021/11/03 06:56:37;;;;;;;11.85;2.67;;;;;;;12.24;88.86;97818.69;5080785;28;20041;-93
2021/11/03 06:59:04;;;;;;;9.57;2.92;;;;;;;12.24;88.97;97807.19;5079267;28;20052;-96
2021/11/03 07:01:30;;;;;;;6.25;2.78;;;;;;;12.23;89.73;97801.00;5079293;28;20446;-94
2021/11/03 07:04:01;;;;;;;10.85;3.17;;;;;;;12.35;90.85;97806.66;5080024;28;20049;-95
2021/11/03 07:06:28;;;;;;;8.52;3.10;;;;;;;12.33;89.66;97810.25;5080165;28;20060;-95
2021/11/03 07:08:57;;;;;;;12.63;2.78;;;;;;;12.46;86.23;97815.81;5079976;28;20051;-94
2021/11/03 07:11:25;;;;;;;8.70;2.50;;;;;;;12.53;86.77;97800.38;5080150;28;20111;-95
2021/11/03 07:13:51;;;;;;;10.48;2.63;;;;;;;12.51;86.65;97795.16;5079946;28;20070;-95
2021/11/03 07:16:17;;;;;;;8.48;2.70;;;;;;;12.65;86.93;97814.91;5080539;28;20048;-93
2021/11/03 07:18:43;;;;;;;9.20;2.72;;;;;;;12.52;86.47;97780.00;5079679;28;20120;-95
2021/11/03 07:21:10;;;;;;;7.22;2.55;;;;;;;12.76;85.54;97814.38;5067287;28;20068;-95
2021/11/03 07:23:36;;;;;;;7.85;2.40;;;;;;;12.64;85.13;97791.84;5060418;28;20052;-96
2021/11/03 07:26:03;;;;;;;8.43;2.70;;;;;;;12.73;84.91;97807.38;5059290;28;20087;-95
2021/11/03 07:28:30;;;;;;;9.82;2.78;;;;;;;12.73;85.64;97786.06;5059852;28;20075;-94
2021/11/03 07:30:56;;;;;;;13.10;3.13;;;;;;;12.80;84.97;97789.25;5071064;28;20218;-96
2021/11/03 07:33:28;;;;;;;11.18;2.92;;;;;;;12.71;86.60;97785.25;5063327;28;20541;-94
2021/11/03 07:35:57;;;;;;;6.68;2.95;;;;;;;12.68;87.42;97793.41;5059153;28;20044;-93
2021/11/03 07:38:25;;;;;;;9.63;2.70;;;;;;;12.78;87.60;97826.69;5060059;28;20052;-96
2021/11/03 07:40:54;;;;;;;10.20;3.08;;;;;;;12.79;89.62;97847.06;5062100;28;20045;-93
2021/11/03 07:43:20;;;;;;;27.30;7.75;;;;;;;12.67;92.37;97829.03;5058899;28;20118;-91
2021/11/03 07:45:48;;;;;;;18.05;5.22;;;;;;;12.35;96.93;97836.84;5057715;28;20494;-91
2021/11/03 07:48:14;;;;;;;14.50;5.63;;;;;;;12.16;97.95;97810.19;5056186;28;20451;-91
2021/11/03 07:50:48;;;;;;;11.93;3.83;;;;;;;12.00;99.57;97817.22;5057953;28;20449;-91
2021/11/03 07:53:15;;;;;;;12.20;3.50;;;;;;;11.86;100.00;97794.75;5062560;28;20041;-91
2021/11/03 07:55:45;;;;;;;12.27;2.92;;;;;;;11.88;100.00;97792.91;5058506;28;20036;-91
2021/11/03 07:58:13;;;;;;;6.80;2.72;;;;;;;12.06;99.32;97788.50;5058874;28;20032;-91
2021/11/03 08:00:39;;;;;;;7.90;3.15;;;;;;;11.96;99.40;97811.19;5056547;28;20490;-92
2021/11/03 08:03:05;;;;;;;9.23;3.00;;;;;;;11.92;100.00;97818.44;5065594;28;20040;-93
2021/11/03 08:05:32;;;;;;;9.10;3.03;;;;;;;11.93;100.00;97824.66;5056806;28;20045;-92
2021/11/03 08:08:03;;;;;;;7.13;3.20;;;;;;;11.97;100.00;97815.59;5052797;28;20077;-93
2021/11/03 08:10:29;;;;;;;10.02;3.30;;;;;;;12.01;100.00;97821.59;5053706;28;20052;-93
2021/11/03 08:12:57;;;;;;;9.52;3.40;;;;;;;11.90;100.00;97803.47;5057258;28;20037;-92
2021/11/03 08:15:23;;;;;;;8.57;3.22;;;;;;;12.00;100.00;97802.09;5055433;28;20359;-92
2021/11/03 08:17:51;;;;;;;9.70;4.07;;;;;;;11.97;100.00;97793.38;5056778;28;20048;-93
2021/11/03 08:20:23;;;;;;;8.38;3.20;;;;;;;12.00;100.00;97802.09;5062844;28;20132;-93
2021/11/03 08:22:49;;;;;;;11.88;2.95;;;;;;;11.93;100.00;97784.69;5055558;28;20501;-93
2021/11/03 08:25:16;;;;;;;10.70;3.67;;;;;;;11.98;100.00;97779.13;5058461;28;20037;-93
2021/11/03 08:27:42;;;;;;;11.57;3.22;;;;;;;12.10;100.00;97794.50;5056751;28;20049;-93
2021/11/03 08:30:12;;;;;;;7.95;2.70;;;;;;;12.08;100.00;97797.28;5055235;28;20525;-93
2021/11/03 08:32:43;;;;;;;7.68;3.00;;;;;;;12.06;100.00;97792.97;5054119;28;20040;-92
2021/11/03 08:35:12;;;;;;;11.40;4.03;;;;;;;12.03;100.00;97780.63;5059257;28;20120;-92
2021/11/03 08:37:40;;;;;;;10.85;3.65;;;;;;;12.07;100.00;97776.88;5061437;28;20049;-93
2021/11/03 08:40:09;;;;;;;8.20;3.15;;;;;;;12.17;100.00;97792.44;5061240;28;20045;-93
2021/11/03 08:42:35;;;;;;;10.45;3.90;;;;;;;12.15;100.00;97786.31;5056157;28;20040;-93
2021/11/03 08:45:01;;;;;;;9.07;3.88;;;;;;;12.16;100.00;97766.72;5056190;28;20076;-93
2021/11/03 08:47:29;;;;;;;8.80;3.80;;;;;;;12.35;100.00;97770.19;5061011;28;20049;-94
2021/11/03 08:49:54;;;;;;;10.70;3.05;;;;;;;12.50;100.00;97772.06;5061880;28;20394;-93
2021/11/03 08:52:20;;;;;;;9.50;3.40;;;;;;;12.63;100.00;97772.31;5062381;28;20045;-94
2021/11/03 08:54:49;;;;;;;7.88;3.22;;;;;;;12.64;100.00;97757.16;5054086;28;20049;-93
2021/11/03 08:57:15;;;;;;;7.72;3.25;;;;;;;12.64;100.00;97744.72;5061514;28;20385;-93
2021/11/03 08:59:41;;;;;;;6.95;2.70;;;;;;;12.68;100.00;97737.38;5057071;28;20068;-95
2021/11/03 09:02:08;;;;;;;8.48;3.60;;;;;;;13.01;100.00;97763.25;5056786;28;20057;-94
2021/11/03 09:04:36;;;;;;;8.35;3.03;;;;;;;12.86;100.00;97741.78;5069683;28;20162;-95
2021/11/03 09:07:03;;;;;;;11.15;3.08;;;;;;;12.79;100.00;97732.34;5066537;28;20045;-94
2021/11/03 09:09:30;;;;;;;9.85;3.00;;;;;;;12.69;100.00;97734.66;5057138;28;20076;-93
2021/11/03 09:11:57;;;;;;;17.05;8.68;;;;;;;12.66;100.00;97720.59;5056058;28;20108;-93
2021/11/03 09:14:23;;;;;;;12.35;3.90;;;;;;;12.67;100.00;97741.03;5056815;28;20053;-95
2021/11/03 09:16:50;;;;;;;13.05;3.22;;;;;;;12.46;99.01;97738.50;5057480;28;20072;-95
2021/11/03 09:19:16;;;;;;;8.75;3.17;;;;;;;12.30;98.56;97718.91;5057545;28;20041;-94
2021/11/03 09:21:44;;;;;;;8.18;2.55;;;;;;;12.12;95.29;97708.25;5057297;28;20048;-95
2021/11/03 09:24:12;;;;;;;6.90;2.67;;;;;;;12.35;96.28;97711.53;5054967;28;20390;-94
2021/11/03 09:26:39;;;;;;;9.60;3.00;;;;;;;12.39;95.02;97693.59;5056346;28;20056;-94
2021/11/03 09:29:06;;;;;;;11.73;3.33;;;;;;;12.01;94.35;97681.25;5058300;28;20040;-93
2021/11/03 09:31:32;;;;;;;7.20;2.65;;;;;;;12.14;90.27;97692.16;5056635;28;20033;-94
2021/11/03 09:33:58;;;;;;;6.65;2.80;;;;;;;12.19;92.91;97686.59;5056023;28;20045;-93
2021/11/03 09:36:24;;;;;;;8.35;3.00;;;;;;;12.20;92.80;97683.00;5056326;28;20509;-93
2021/11/03 09:38:52;;;;;;;11.23;3.53;;;;;;;12.31;94.05;97701.97;5055746;28;20582;-94
2021/11/03 09:41:22;;;;;;;13.85;6.78;;;;;;;12.38;96.13;97699.84;5056103;28;20048;-94
2021/11/03 09:43:53;;;;;;;19.92;6.47;;;;;;;12.45;98.74;97711.94;5056676;28;20053;-94
2021/11/03 09:46:22;;;;;;;19.88;8.73;;;;;;;12.26;100.00;97683.53;5057071;28;20049;-94
2021/11/03 09:48:53;;;;;;;13.43;5.68;;;;;;;12.39;100.00;97696.25;5059592;28;20051;-93
2021/11/03 09:51:23;;;;;;;7.03;3.33;;;;;;;12.34;99.08;97685.81;5059392;28;20036;-93
2021/11/03 09:53:53;;;;;;;7.85;3.80;;;;;;;12.38;98.35;97689.19;5063231;28;20064;-95
2021/11/03 09:56:21;;;;;;;57.50;26.50;;;;;;;12.37;96.90;97683.00;5075814;28;20079;-93
2021/11/03 09:59:04;;;;;;;12.95;5.72;;;;;;;12.40;96.88;97672.16;5079610;28;20071;-94
2021/11/03 10:01:42;;;;;;;9.05;3.03;;;;;;;12.50;96.20;97656.56;5079302;28;20084;-94
2021/11/03 10:04:21;;;;;;;9.38;3.50;;;;;;;12.57;95.97;97659.75;5079027;28;20024;-94
2021/11/03 10:06:56;;;;;;;11.25;3.67;;;;;;;12.62;91.55;97655.03;5080513;28;20032;-94
2021/11/03 10:09:23;;;;;;;9.20;3.85;;;;;;;12.81;93.01;97652.25;5061246;28;20025;-95
2021/11/03 10:11:52;;;;;;;12.15;5.13;;;;;;;12.91;91.51;97656.16;5059582;28;20048;-93
2021/11/03 10:14:19;;;;;;;9.45;3.65;;;;;;;13.05;92.38;97661.56;5049062;28;20071;-93
2021/11/03 10:16:50;;;;;;;10.10;4.88;;;;;;;13.05;92.69;97652.72;5058216;28;20045;-94
2021/11/03 10:19:29;;;;;;;18.45;6.07;;;;;;;13.20;90.26;97646.53;5059725;28;20048;-96
2021/11/03 10:21:58;;;;;;;11.18;4.10;;;;;;;13.11;91.51;97628.34;5060431;28;20048;-95
2021/11/03 10:24:37;;;;;;;;;;;;;;;13.11;89.92;97661.25;5061252;28;20076;-94
2021/11/03 10:27:16;;;;;;;24.92;7.68;;;;;;;13.19;90.74;97642.16;5059917;28;19935;-94
2021/11/03 10:29:44;;;;;;;;;;;;;;;13.44;90.79;97659.47;5060145;28;20048;-94
2021/11/03 10:32:20;;;;;;;12.75;4.55;;;;;;;13.48;91.95;97653.03;5060518;28;19971;-94
2021/11/03 10:34:59;;;;;;;10.68;4.95;;;;;;;13.35;90.92;97618.13;5058987;28;20041;-93
2021/11/03 10:37:36;;;;;;;13.68;4.80;;;;;;;13.17;91.09;97617.34;5072521;28;20068;-94
2021/11/03 10:40:21;;;;;;;11.20;5.32;;;;;;;13.25;93.38;97630.25;5059377;28;20037;-93
2021/11/03 10:42:51;;;;;;;11.93;5.53;;;;;;;13.39;93.32;97629.53;5078331;28;20072;-94
2021/11/03 10:45:25;;;;;;;10.98;5.20;;;;;;;13.30;92.59;97618.41;5078530;28;20095;-94
2021/11/03 10:47:55;;;;;;;12.27;5.88;;;;;;;13.42;92.04;97626.66;5078517;28;20406;-94
2021/11/03 10:50:30;;;;;;;14.10;5.53;;;;;;;13.53;93.20;97632.25;5078504;28;20036;-94
2021/11/03 10:52:59;;;;;;;11.70;6.72;;;;;;;13.54;92.81;97610.78;5061758;28;20140;-94
2021/11/03 10:55:39;;;;;;;13.88;7.40;;;;;;;13.56;93.29;97597.38;5078308;28;20041;-95
2021/11/03 10:58:07;;;;;;;12.57;5.97;;;;;;;13.78;92.76;97591.63;5072346;28;20056;-95
2021/11/03 11:00:36;;;;;;;17.45;7.53;;;;;;;14.02;93.32;97612.50;5060417;28;20041;-94
2021/11/03 11:03:06;;;;;;;18.00;8.27;;;;;;;14.04;93.65;97618.63;5071152;28;20386;-94
2021/11/03 11:05:36;;;;;;;16.15;8.52;;;;;;;13.97;93.66;97592.25;5078365;28;20045;-95
2021/11/03 11:08:11;;;;;;;15.48;8.23;;;;;;;14.11;93.11;97610.13;5077944;28;20096;-94
2021/11/03 11:10:45;;;;;;;15.82;7.85;;;;;;;14.09;94.09;97604.00;5078037;28;20051;-94
2021/11/03 11:13:17;;;;;;;18.52;8.95;;;;;;;14.08;94.01;97622.84;5076721;28;20052;-94
2021/11/03 11:15:55;;;;;;;17.75;9.23;;;;;;;13.93;94.42;97590.72;5058191;28;20041;-95
2021/11/03 11:18:45;;;;;;;24.77;11.00;;;;;;;14.13;92.27;97594.00;5058283;28;20080;-95
2021/11/03 11:21:17;;;;;;;17.83;10.00;;;;;;;14.16;92.83;97594.69;5057655;28;20068;-95
2021/11/03 11:23:48;;;;;;;20.83;9.30;;;;;;;14.20;93.50;97591.81;5057227;28;20041;-94
2021/11/03 11:26:22;;;;;;;25.75;9.82;;;;;;;14.13;94.12;97596.69;5057831;28;20063;-94
2021/11/03 11:28:56;;;;;;;24.83;10.75;;;;;;;13.96;95.37;97590.50;5058387;28;20421;-95
2021/11/03 11:31:29;;;;;;;18.40;9.45;;;;;;;13.94;96.44;97594.25;5057813;28;20486;-95
2021/11/03 11:34:02;;;;;;;18.40;8.77;;;;;;;13.86;96.54;97594.72;5057495;28;20076;-93
2021/11/03 11:36:34;;;;;;;15.98;7.65;;;;;;;13.71;97.41;97575.09;5057951;28;20051;-96
2021/11/03 11:39:15;;;;;;;16.00;10.05;;;;;;;13.66;97.94;97571.84;5058260;28;20056;-96
2021/11/03 11:42:04;;;;;;;18.52;10.00;;;;;;;13.71;98.54;97574.25;5057200;28;20092;-95
2021/11/03 11:44:32;;;;;;;16.92;8.77;;;;;;;13.67;98.75;97573.56;5057143;28;20045;-94
2021/11/03 11:47:03;;;;;;;15.75;8.85;;;;;;;13.66;98.96;97562.94;5063988;28;20559;-95
2021/11/03 11:49:32;;;;;;;14.68;9.30;;;;;;;13.68;100.00;97566.38;5068817;28;20021;-93
2021/11/03 11:52:04;;;;;;;17.63;9.35;;;;;;;13.76;98.91;97564.13;5057424;28;20037;-93
2021/11/03 11:54:33;;;;;;;14.90;8.35;;;;;;;13.68;99.53;97564.56;5057436;28;20041;-95
2021/11/03 11:57:24;;;;;;;16.48;8.82;;;;;;;13.68;99.94;97575.25;5057259;28;20067;-95